createdAt,value
2018-10-21T00:02:09.216Z,78.40
2018-10-21T00:04:37.236Z,78.40
2018-10-21T00:07:05.623Z,78.50
2018-10-21T00:09:33.678Z,78.60
2018-10-21T00:12:01.753Z,78.60
2018-10-21T00:14:29.842Z,78.60
2018-10-21T00:16:57.944Z,78.70
2018-10-21T00:19:26.028Z,78.80
2018-10-21T00:21:54.124Z,78.70
2018-10-21T00:24:22.192Z,78.50
2018-10-21T00:26:50.277Z,78.30
2018-10-21T00:29:18.293Z,78.40
2018-10-21T00:31:46.336Z,78.30
2018-10-21T00:34:14.435Z,78.50
2018-10-21T00:36:42.435Z,78.40
2018-10-21T00:39:12.332Z,78.40
2018-10-21T00:41:40.699Z,78.70
2018-10-21T00:44:08.998Z,78.90
2018-10-21T00:46:37.264Z,79.20
2018-10-21T00:49:06.173Z,79.20
2018-10-21T00:51:34.268Z,79.40
2018-10-21T00:54:02.506Z,79.50
2018-10-21T00:56:30.498Z,79.70
2018-10-21T00:58:58.549Z,79.50
2018-10-21T01:01:26.569Z,80.00
2018-10-21T01:03:54.604Z,80.00
2018-10-21T01:06:22.670Z,80.00
2018-10-21T01:08:50.667Z,80.10
2018-10-21T01:11:18.686Z,80.00
2018-10-21T01:13:46.748Z,80.00
2018-10-21T01:16:14.751Z,79.90
2018-10-21T01:18:42.918Z,80.00
2018-10-21T01:21:11.260Z,80.00
2018-10-21T01:23:39.221Z,80.00
2018-10-21T01:26:07.215Z,79.50
2018-10-21T01:28:35.395Z,79.30
2018-10-21T01:31:03.553Z,79.20
2018-10-21T01:33:31.614Z,79.40
2018-10-21T01:35:59.708Z,79.10
2018-10-21T01:38:27.799Z,79.20
2018-10-21T01:40:56.944Z,79.10
2018-10-21T01:43:26.372Z,79.10
2018-10-21T01:45:54.541Z,79.30
2018-10-21T01:48:23.742Z,79.20
2018-10-21T01:50:51.976Z,79.20
2018-10-21T01:53:20.562Z,79.40
2018-10-21T01:55:48.855Z,79.50
2018-10-21T01:58:16.943Z,79.60
2018-10-21T02:00:45.124Z,79.60
2018-10-21T02:03:13.221Z,79.40
2018-10-21T02:05:42.284Z,79.40
2018-10-21T02:08:10.443Z,79.50
2018-10-21T02:10:38.533Z,79.50
2018-10-21T02:13:06.651Z,79.50
2018-10-21T02:15:34.721Z,79.50
2018-10-21T02:18:02.913Z,79.70
2018-10-21T02:20:31.185Z,79.50
2018-10-21T02:22:59.237Z,79.40
2018-10-21T02:25:27.299Z,79.40
2018-10-21T02:27:55.543Z,79.50
2018-10-21T02:30:24.858Z,79.50
2018-10-21T02:32:53.423Z,79.30
2018-10-21T02:35:21.762Z,79.20
2018-10-21T02:37:50.258Z,79.00
2018-10-21T02:41:38.224Z,78.90
2018-10-21T02:44:07.839Z,79.00
2018-10-21T02:46:36.535Z,79.20
2018-10-21T02:49:05.877Z,79.20
2018-10-21T02:51:34.178Z,79.20
2018-10-21T02:54:02.276Z,79.10
2018-10-21T02:56:30.276Z,79.30
2018-10-21T02:58:58.329Z,79.40
2018-10-21T03:01:26.374Z,79.60
2018-10-21T03:03:54.422Z,79.50
2018-10-21T03:06:22.503Z,79.50
2018-10-21T03:08:53.955Z,79.60
2018-10-21T03:11:22.009Z,79.50
2018-10-21T03:13:50.235Z,79.40
2018-10-21T03:16:18.390Z,79.40
2018-10-21T03:18:46.447Z,79.40
2018-10-21T03:21:14.720Z,79.40
2018-10-21T03:23:42.775Z,79.50
2018-10-21T03:26:10.913Z,79.70
2018-10-21T03:28:38.924Z,79.70
2018-10-21T03:31:07.008Z,79.70
2018-10-21T03:33:35.106Z,79.80
2018-10-21T03:36:03.140Z,80.00
2018-10-21T03:38:31.207Z,80.00
2018-10-21T03:40:59.211Z,79.80
2018-10-21T03:43:27.253Z,79.90
2018-10-21T03:45:55.352Z,79.90
2018-10-21T03:48:23.416Z,80.00
2018-10-21T03:50:51.659Z,80.20
2018-10-21T03:53:19.745Z,79.90
2018-10-21T03:55:47.776Z,80.00
2018-10-21T03:58:16.002Z,79.80
2018-10-21T04:00:44.017Z,79.70
2018-10-21T04:03:12.064Z,79.60
2018-10-21T04:05:40.111Z,79.70
2018-10-21T04:08:08.104Z,79.70
2018-10-21T04:10:36.292Z,79.90
2018-10-21T04:13:04.752Z,79.90
2018-10-21T04:15:32.938Z,80.00
2018-10-21T04:18:01.623Z,80.30
2018-10-21T04:20:29.871Z,80.50
2018-10-21T04:22:59.170Z,80.70
2018-10-21T04:25:28.178Z,80.90
2018-10-21T04:27:57.335Z,82.00
2018-10-21T04:30:33.416Z,81.70
2018-10-21T04:33:07.401Z,82.00
2018-10-21T04:35:35.509Z,82.20
2018-10-21T04:38:32.571Z,82.20
2018-10-21T04:41:00.566Z,82.60
2018-10-21T04:43:28.607Z,82.50
2018-10-21T04:45:56.682Z,82.60
2018-10-21T04:48:24.703Z,82.90
2018-10-21T04:50:52.788Z,82.90
2018-10-21T04:53:20.801Z,82.90
2018-10-21T04:55:48.806Z,83.50
2018-10-21T04:58:16.859Z,83.30
2018-10-21T05:00:45.226Z,83.20
2018-10-21T05:03:13.144Z,83.20
2018-10-21T05:05:41.190Z,83.30
2018-10-21T05:08:09.238Z,83.60
2018-10-21T05:10:38.394Z,83.50
2018-10-21T05:13:07.270Z,83.50
2018-10-21T05:15:36.677Z,83.50
2018-10-21T05:18:06.304Z,83.40
2018-10-21T05:20:34.358Z,83.50
2018-10-21T05:23:02.532Z,83.50
2018-10-21T05:25:30.568Z,83.80
2018-10-21T05:27:58.693Z,84.60
2018-10-21T05:30:26.740Z,84.20
2018-10-21T05:32:54.785Z,84.10
2018-10-21T05:35:22.871Z,84.10
2018-10-21T05:37:51.010Z,84.10
2018-10-21T05:40:20.260Z,84.00
2018-10-21T05:42:48.780Z,84.00
2018-10-21T05:45:16.821Z,84.00
2018-10-21T05:47:44.936Z,83.90
2018-10-21T05:50:14.002Z,84.00
2018-10-21T05:52:42.404Z,83.90
2018-10-21T05:55:11.162Z,84.10
2018-10-21T05:57:39.243Z,83.90
2018-10-21T06:00:14.197Z,83.80
2018-10-21T06:02:42.435Z,83.80
2018-10-21T06:05:54.354Z,83.70
2018-10-21T06:08:22.434Z,83.60
2018-10-21T06:10:50.688Z,83.90
2018-10-21T06:13:18.684Z,84.10
2018-10-21T06:15:46.794Z,84.20
2018-10-21T06:18:21.640Z,84.20
2018-10-21T06:20:53.194Z,83.50
2018-10-21T06:23:21.276Z,84.10
2018-10-21T06:25:49.438Z,83.90
2018-10-21T06:28:17.529Z,84.00
2018-10-21T06:30:45.633Z,83.90
2018-10-21T06:33:13.649Z,83.70
2018-10-21T06:35:41.674Z,83.50
2018-10-21T06:38:09.934Z,83.10
2018-10-21T06:40:38.058Z,82.70
2018-10-21T06:43:06.266Z,82.60
2018-10-21T06:45:34.327Z,83.30
2018-10-21T06:48:02.348Z,82.70
2018-10-21T06:50:30.447Z,83.60
2018-10-21T06:52:58.507Z,82.90
2018-10-21T06:55:26.529Z,83.00
2018-10-21T06:57:54.755Z,83.30
2018-10-21T07:00:22.928Z,83.50
2018-10-21T07:02:50.996Z,83.40
2018-10-21T07:05:36.180Z,83.70
2018-10-21T07:08:04.570Z,83.80
2018-10-21T07:10:32.741Z,83.60
2018-10-21T07:13:00.823Z,83.50
2018-10-21T07:15:29.012Z,83.00
2018-10-21T07:17:57.162Z,82.80
2018-10-21T07:20:25.312Z,82.50
2018-10-21T07:22:53.486Z,82.50
2018-10-21T07:25:21.520Z,82.40
2018-10-21T07:27:50.090Z,82.40
2018-10-21T07:30:18.147Z,82.50
2018-10-21T07:32:46.214Z,82.40
2018-10-21T07:35:14.523Z,82.40
2018-10-21T07:37:43.155Z,82.30
2018-10-21T07:40:12.418Z,82.30
2018-10-21T07:42:40.673Z,82.20
2018-10-21T07:45:08.846Z,82.20
2018-10-21T07:47:36.854Z,82.00
2018-10-21T07:50:05.366Z,82.00
2018-10-21T07:52:33.487Z,82.00
2018-10-21T07:55:01.654Z,81.90
2018-10-21T07:57:29.872Z,81.90
2018-10-21T07:59:57.911Z,82.00
2018-10-21T08:02:25.924Z,82.00
2018-10-21T08:04:53.970Z,81.90
2018-10-21T08:07:39.235Z,81.70
2018-10-21T08:10:07.666Z,81.70
2018-10-21T08:12:35.755Z,81.40
2018-10-21T08:15:04.631Z,81.10
2018-10-21T08:17:32.737Z,80.70
2018-10-21T08:20:00.897Z,80.50
2018-10-21T08:22:28.942Z,80.20
2018-10-21T08:24:57.048Z,79.50
2018-10-21T08:27:25.162Z,79.30
2018-10-21T08:29:53.180Z,79.00
2018-10-21T08:32:21.228Z,78.80
2018-10-21T08:34:49.355Z,78.60
2018-10-21T08:37:17.479Z,78.40
2018-10-21T08:39:45.563Z,78.20
2018-10-21T08:42:13.645Z,78.10
2018-10-21T08:44:41.663Z,78.00
2018-10-21T08:47:09.789Z,78.10
2018-10-21T08:49:37.934Z,78.00
2018-10-21T08:52:06.180Z,77.90
2018-10-21T08:54:35.095Z,77.60
2018-10-21T08:57:03.372Z,77.40
2018-10-21T08:59:31.517Z,77.40
2018-10-21T09:01:59.717Z,77.10
2018-10-21T09:04:27.882Z,77.00
2018-10-21T09:06:56.060Z,77.00
2018-10-21T09:09:24.313Z,77.00
2018-10-21T09:11:52.375Z,77.80
2018-10-21T09:14:20.460Z,76.90
2018-10-21T09:16:48.701Z,76.70
2018-10-21T09:19:16.982Z,76.70
2018-10-21T09:21:45.176Z,76.60
2018-10-21T09:24:13.216Z,76.50
2018-10-21T09:26:41.320Z,76.50
2018-10-21T09:29:09.386Z,76.60
2018-10-21T09:31:37.545Z,76.60
2018-10-21T09:34:05.649Z,76.30
2018-10-21T09:36:33.822Z,75.00
2018-10-21T09:39:01.902Z,75.10
2018-10-21T09:41:29.955Z,75.00
2018-10-21T09:43:58.065Z,74.50
2018-10-21T09:46:26.184Z,74.10
2018-10-21T09:48:54.381Z,73.80
2018-10-21T09:51:22.628Z,73.60
2018-10-21T09:53:50.694Z,73.50
2018-10-21T09:56:18.783Z,73.80
2018-10-21T09:58:46.908Z,72.90
2018-10-21T10:01:20.401Z,72.20
2018-10-21T10:03:48.504Z,71.70
2018-10-21T10:06:16.485Z,71.40
2018-10-21T10:08:44.671Z,70.90
2018-10-21T10:11:15.620Z,70.00
2018-10-21T10:13:45.893Z,69.70
2018-10-21T10:16:14.360Z,69.70
2018-10-21T10:18:43.444Z,69.30
2018-10-21T10:21:11.574Z,68.90
2018-10-21T10:23:39.648Z,68.90
2018-10-21T10:26:08.545Z,68.40
2018-10-21T10:28:36.630Z,67.60
2018-10-21T10:31:04.883Z,67.80
2018-10-21T10:33:33.085Z,67.90
2018-10-21T10:36:01.646Z,68.00
2018-10-21T10:38:29.674Z,68.10
2018-10-21T10:40:57.835Z,68.40
2018-10-21T10:43:26.113Z,68.90
2018-10-21T10:45:54.375Z,68.10
2018-10-21T10:48:22.461Z,68.00
2018-10-21T10:50:50.468Z,67.80
2018-10-21T10:53:18.527Z,67.50
2018-10-21T10:55:49.432Z,67.20
2018-10-21T10:58:17.555Z,66.30
2018-10-21T11:00:45.742Z,65.90
2018-10-21T11:03:14.143Z,65.30
2018-10-21T11:05:42.443Z,65.00
2018-10-21T11:08:10.600Z,64.50
2018-10-21T11:10:38.710Z,64.30
2018-10-21T11:13:06.893Z,64.30
2018-10-21T11:15:34.951Z,64.20
2018-10-21T11:18:03.150Z,63.90
2018-10-21T11:20:31.358Z,63.70
2018-10-21T11:22:59.441Z,63.50
2018-10-21T11:25:27.569Z,60.60
2018-10-21T11:27:55.874Z,60.00
2018-10-21T11:30:24.078Z,59.10
2018-10-21T11:32:52.381Z,58.90
2018-10-21T11:35:21.354Z,58.50
2018-10-21T11:37:49.570Z,58.40
2018-10-21T11:40:17.964Z,58.10
2018-10-21T11:42:46.005Z,58.00
2018-10-21T11:45:14.072Z,57.80
2018-10-21T11:47:42.826Z,57.40
2018-10-21T11:50:12.078Z,57.30
2018-10-21T11:52:41.390Z,56.90
2018-10-21T11:55:10.662Z,55.80
2018-10-21T11:57:39.918Z,55.60
2018-10-21T12:00:09.507Z,55.20
2018-10-21T12:02:37.694Z,54.50
2018-10-21T12:05:06.305Z,53.80
2018-10-21T12:07:34.437Z,53.10
2018-10-21T12:10:02.528Z,52.30
2018-10-21T12:12:30.637Z,51.70
2018-10-21T12:14:58.644Z,51.00
2018-10-21T12:17:26.683Z,50.30
2018-10-21T12:19:54.791Z,49.80
2018-10-21T12:22:22.822Z,49.50
2018-10-21T12:24:51.639Z,49.20
2018-10-21T12:27:19.061Z,49.10
2018-10-21T12:29:47.136Z,48.50
2018-10-21T12:32:15.253Z,48.10
2018-10-21T12:34:43.257Z,47.50
2018-10-21T12:37:11.356Z,48.00
2018-10-21T12:39:39.420Z,47.80
2018-10-21T12:42:07.543Z,47.30
2018-10-21T12:44:35.554Z,47.80
2018-10-21T12:47:03.844Z,47.50
2018-10-21T12:49:31.894Z,47.80
2018-10-21T12:52:00.589Z,48.00
2018-10-21T12:54:28.796Z,47.10
2018-10-21T12:56:56.884Z,47.10
2018-10-21T12:59:24.967Z,46.90
2018-10-21T13:01:53.070Z,46.60
2018-10-21T13:04:21.306Z,46.50
2018-10-21T13:06:49.516Z,47.00
2018-10-21T13:09:17.751Z,47.40
2018-10-21T13:11:46.714Z,47.70
2018-10-21T13:14:14.897Z,47.90
2018-10-21T13:16:42.920Z,48.20
2018-10-21T13:19:11.043Z,48.50
2018-10-21T13:21:39.272Z,48.90
2018-10-21T13:24:07.336Z,49.10
2018-10-21T13:26:35.436Z,49.00
2018-10-21T13:29:03.548Z,48.90
2018-10-21T13:31:31.580Z,48.70
2018-10-21T13:33:59.627Z,48.50
2018-10-21T13:36:27.834Z,48.60
2018-10-21T13:38:56.240Z,48.70
2018-10-21T13:41:24.539Z,48.80
2018-10-21T13:43:52.594Z,48.90
2018-10-21T13:46:20.762Z,49.00
2018-10-21T13:48:48.757Z,49.20
2018-10-21T13:51:16.855Z,49.30
2018-10-21T13:53:44.884Z,49.50
2018-10-21T13:56:12.912Z,49.20
2018-10-21T13:58:40.908Z,49.40
2018-10-21T14:01:09.049Z,49.20
2018-10-21T14:03:37.085Z,49.10
2018-10-21T14:06:05.593Z,49.00
2018-10-21T14:08:33.865Z,49.00
2018-10-21T14:11:02.092Z,49.10
2018-10-21T14:13:30.274Z,49.00
2018-10-21T14:15:58.437Z,49.00
2018-10-21T14:18:26.534Z,49.10
2018-10-21T14:20:54.616Z,49.30
2018-10-21T14:23:22.622Z,49.40
2018-10-21T14:25:50.823Z,49.60
2018-10-21T14:28:18.983Z,49.80
2018-10-21T14:30:47.179Z,50.00
2018-10-21T14:33:15.378Z,50.20
2018-10-21T14:35:43.530Z,50.30
2018-10-21T14:38:11.700Z,50.40
2018-10-21T14:40:39.691Z,50.40
2018-10-21T14:43:07.844Z,50.60
2018-10-21T14:45:35.950Z,50.70
2018-10-21T14:48:04.072Z,50.70
2018-10-21T14:50:32.092Z,50.80
2018-10-21T14:53:00.158Z,50.90
2018-10-21T14:55:28.199Z,50.90
2018-10-21T14:57:56.212Z,50.70
2018-10-21T15:00:24.605Z,50.60
2018-10-21T15:02:52.560Z,50.50
2018-10-21T15:05:20.594Z,50.30
2018-10-21T15:07:48.757Z,50.40
2018-10-21T15:10:16.880Z,50.50
2018-10-21T15:12:44.941Z,50.60
2018-10-21T15:15:12.953Z,50.20
2018-10-21T15:17:41.053Z,50.80
2018-10-21T15:20:11.370Z,50.90
2018-10-21T15:22:39.315Z,50.90
2018-10-21T15:25:09.548Z,51.10
2018-10-21T15:27:37.941Z,51.20
2018-10-21T15:30:07.549Z,51.50
2018-10-21T15:32:35.638Z,51.70
2018-10-21T15:35:04.246Z,52.20
2018-10-21T15:37:32.422Z,52.60
2018-10-21T15:40:00.518Z,53.30
2018-10-21T15:42:28.598Z,53.60
2018-10-21T15:44:56.619Z,54.00
2018-10-21T15:47:24.744Z,54.50
2018-10-21T15:49:52.903Z,55.10
2018-10-21T15:52:21.001Z,55.60
2018-10-21T15:54:49.005Z,55.90
2018-10-21T15:57:17.132Z,56.20
2018-10-21T15:59:45.521Z,56.50
2018-10-21T16:02:13.741Z,56.80
2018-10-21T16:04:41.821Z,57.10
2018-10-21T16:07:09.929Z,57.40
2018-10-21T16:09:38.042Z,57.80
2018-10-21T16:12:06.226Z,58.10
2018-10-21T16:14:34.829Z,58.40
2018-10-21T16:17:02.946Z,58.60
2018-10-21T16:19:31.203Z,58.90
2018-10-21T16:21:59.357Z,59.00
2018-10-21T16:24:27.429Z,59.10
2018-10-21T16:26:55.573Z,59.30
2018-10-21T16:29:23.875Z,59.50
2018-10-21T16:31:52.013Z,59.60
2018-10-21T16:34:20.109Z,59.60
2018-10-21T16:36:48.087Z,59.90
2018-10-21T16:39:16.504Z,59.80
2018-10-21T16:41:44.589Z,59.80
2018-10-21T16:44:12.653Z,59.60
2018-10-21T16:46:40.884Z,59.60
2018-10-21T16:49:09.168Z,59.60
2018-10-21T16:51:37.453Z,59.50
2018-10-21T16:54:06.176Z,59.70
2018-10-21T16:56:34.242Z,59.70
2018-10-21T16:59:02.938Z,60.00
2018-10-21T17:01:31.221Z,60.20
2018-10-21T17:03:59.445Z,60.30
2018-10-21T17:06:27.821Z,60.50
2018-10-21T17:08:55.999Z,60.60
2018-10-21T17:11:24.262Z,60.60
2018-10-21T17:13:52.543Z,60.60
2018-10-21T17:16:21.280Z,60.70
2018-10-21T17:18:49.456Z,60.90
2018-10-21T17:21:17.758Z,61.00
2018-10-21T17:23:45.914Z,61.00
2018-10-21T17:26:14.051Z,60.90
2018-10-21T17:28:42.245Z,60.80
2018-10-21T17:31:10.334Z,60.80
2018-10-21T17:33:38.390Z,61.90
2018-10-21T17:36:07.487Z,61.90
2018-10-21T17:38:35.691Z,61.90
2018-10-21T17:41:03.971Z,62.10
2018-10-21T17:43:32.109Z,61.50
2018-10-21T17:46:00.183Z,62.40
2018-10-21T17:48:28.232Z,62.60
2018-10-21T17:50:56.314Z,62.80
2018-10-21T17:53:24.377Z,63.00
2018-10-21T17:55:53.145Z,63.40
2018-10-21T17:58:21.359Z,63.70
2018-10-21T18:00:49.607Z,63.90
2018-10-21T18:03:17.628Z,64.20
2018-10-21T18:05:45.977Z,64.30
2018-10-21T18:08:14.018Z,64.30
2018-10-21T18:10:42.148Z,64.60
2018-10-21T18:13:10.293Z,64.70
2018-10-21T18:15:38.307Z,64.60
2018-10-21T18:18:06.403Z,64.60
2018-10-21T18:20:34.481Z,64.40
2018-10-21T18:23:02.710Z,64.50
2018-10-21T18:25:30.955Z,64.60
2018-10-21T18:27:59.124Z,64.90
2018-10-21T18:30:27.271Z,65.20
2018-10-21T18:32:55.401Z,65.30
2018-10-21T18:35:23.433Z,65.50
2018-10-21T18:37:51.511Z,65.60
2018-10-21T18:40:19.792Z,65.80
2018-10-21T18:42:47.833Z,66.00
2018-10-21T18:45:16.033Z,66.30
2018-10-21T18:47:44.197Z,66.60
2018-10-21T18:50:14.184Z,66.70
2018-10-21T18:52:42.719Z,67.00
2018-10-21T18:55:11.530Z,67.30
2018-10-21T18:57:39.631Z,67.50
2018-10-21T19:00:11.481Z,67.60
2018-10-21T19:02:39.991Z,67.90
2018-10-21T19:05:08.737Z,68.00
2018-10-21T19:07:37.440Z,68.30
2018-10-21T19:10:08.214Z,68.20
2018-10-21T19:12:36.677Z,68.00
2018-10-21T19:15:06.042Z,68.00
2018-10-21T19:17:34.146Z,68.20
2018-10-21T19:20:02.299Z,68.10
2018-10-21T19:22:30.338Z,68.00
2018-10-21T19:24:58.678Z,67.90
2018-10-21T19:27:26.920Z,67.80
2018-10-21T19:29:55.191Z,67.60
2018-10-21T19:32:23.535Z,67.50
2018-10-21T19:34:51.636Z,67.50
2018-10-21T19:37:20.007Z,67.50
2018-10-21T19:39:48.126Z,67.60
2018-10-21T19:42:16.289Z,67.70
2018-10-21T19:44:44.363Z,67.90
2018-10-21T19:47:12.494Z,68.10
2018-10-21T19:49:40.527Z,68.10
2018-10-21T19:52:08.707Z,68.10
2018-10-21T19:54:36.666Z,68.20
2018-10-21T19:57:04.869Z,68.30
2018-10-21T19:59:32.961Z,68.40
2018-10-21T20:02:01.089Z,68.60
2018-10-21T20:04:29.253Z,68.90
2018-10-21T20:06:57.362Z,69.10
2018-10-21T20:09:25.414Z,69.30
2018-10-21T20:11:54.179Z,69.30
2018-10-21T20:14:22.274Z,69.60
2018-10-21T20:16:50.319Z,69.80
2018-10-21T20:19:18.365Z,69.70
2018-10-21T20:21:46.624Z,69.80
2018-10-21T20:24:14.718Z,69.90
2018-10-21T20:26:42.843Z,70.10
2018-10-21T20:29:10.969Z,70.90
2018-10-21T20:31:40.303Z,70.20
2018-10-21T20:34:08.482Z,70.00
2018-10-21T20:36:36.572Z,70.30
2018-10-21T20:39:07.834Z,70.60
2018-10-21T20:41:36.207Z,70.70
2018-10-21T20:44:04.496Z,70.70
2018-10-21T20:46:31.984Z,70.70
2018-10-21T20:49:00.135Z,70.70
2018-10-21T20:51:28.338Z,71.00
2018-10-21T20:53:56.284Z,71.00
2018-10-21T20:56:24.295Z,71.00
2018-10-21T20:58:52.460Z,71.10
2018-10-21T21:01:20.558Z,71.10
2018-10-21T21:08:42.294Z,72.00
2018-10-21T21:11:12.422Z,72.00
2018-10-21T21:13:42.413Z,72.00
2018-10-21T21:16:12.500Z,72.00
2018-10-21T21:18:42.362Z,72.30
2018-10-21T21:21:12.286Z,72.30
2018-10-21T21:23:42.242Z,72.40
2018-10-21T21:26:12.125Z,72.60
2018-10-21T21:28:42.043Z,72.70
2018-10-21T21:31:11.971Z,72.70
2018-10-21T21:33:42.019Z,72.70
2018-10-21T21:36:12.041Z,72.80
2018-10-21T21:38:42.405Z,73.20
2018-10-21T21:41:12.325Z,73.00
2018-10-21T21:43:42.208Z,73.20
2018-10-21T21:46:12.393Z,73.20
2018-10-21T21:48:42.371Z,73.30
2018-10-21T21:51:12.340Z,73.50
2018-10-21T21:53:42.219Z,73.70
2018-10-21T21:56:12.175Z,73.60
2018-10-21T21:58:42.119Z,73.50
2018-10-21T22:01:12.045Z,73.70
2018-10-21T22:03:41.974Z,73.90
2018-10-21T22:06:12.122Z,73.50
2018-10-21T22:08:42.301Z,73.70
2018-10-21T22:11:12.232Z,74.10
2018-10-21T22:13:42.171Z,74.70
2018-10-21T22:16:12.501Z,74.40
2018-10-21T22:18:42.499Z,74.70
2018-10-21T22:21:12.583Z,75.00
2018-10-21T22:23:42.522Z,75.00
2018-10-21T22:26:12.721Z,74.90
2018-10-21T22:28:42.621Z,75.00
2018-10-21T22:31:12.691Z,75.00
2018-10-21T22:33:42.661Z,75.20
2018-10-21T22:36:12.709Z,75.80
2018-10-21T22:38:42.590Z,75.30
2018-10-21T22:41:12.601Z,75.20
2018-10-21T22:43:42.600Z,75.40
2018-10-21T22:46:12.584Z,74.90
2018-10-21T22:48:42.536Z,75.10
2018-10-21T22:51:12.526Z,75.00
2018-10-21T22:53:42.412Z,75.20
2018-10-21T22:56:12.286Z,75.40
2018-10-21T22:58:42.325Z,75.60
2018-10-21T23:01:12.319Z,75.80
2018-10-21T23:03:42.392Z,76.00
2018-10-21T23:06:12.380Z,76.10
2018-10-21T23:08:42.221Z,76.70
2018-10-21T23:11:12.166Z,76.40
2018-10-21T23:13:42.103Z,76.50
2018-10-21T23:16:12.176Z,76.50
2018-10-21T23:18:42.157Z,76.50
2018-10-21T23:21:12.089Z,76.60
2018-10-21T23:23:42.149Z,76.60
2018-10-21T23:26:12.065Z,77.00
2018-10-21T23:28:41.988Z,77.20
2018-10-21T23:31:11.928Z,77.20
2018-10-21T23:33:41.817Z,77.00
2018-10-21T23:36:11.937Z,77.10
2018-10-21T23:38:42.093Z,77.30
2018-10-21T23:41:12.136Z,77.50
2018-10-21T23:43:42.078Z,77.80
2018-10-21T23:46:12.415Z,77.90
2018-10-21T23:48:42.262Z,77.60
2018-10-21T23:51:12.530Z,77.90
2018-10-21T23:53:42.546Z,78.00
2018-10-21T23:56:13.074Z,77.90
2018-10-21T23:58:43.054Z,77.70
